»·PEaware :: N561AZ KSBA-KSNA

N561AZ :: KSBA-KSNA

FLIGHT INFORMATION

Flight Status: Arrived
Operator: Privately registered:
United States
More flights under this callsign
Pilot: Sanjiv S. (4490)
Aircraft: BEECH AIRCRAFT BARON
(BE58)
More flights by this aircraft type
Origin: KSBA Santa Barbara Mun
United States
Destination: KSNA John Wayne-Orange Co
United States
More flights between these airports :: More routes between these airports
Route: KWANG CMA VNY V186 BAYJY V363 POXKU V8 SLI
File this flight plan on PilotEdge
Remarks: TEC route SBAN6
Altitude:
(Current/Filed)
5,000ft
Speed:
(Current/Filed)
170kts
Departed: 01-Dec-16 09:59 AM
Arrived: 01-Dec-16 10:50 AM
Distance/Time
Traveled:
108nm/0:51
Distance/Time
To Go:
Arrived

Flight Plot

Page will automatically refresh every two minutes.


Map Options




Map Legend


Flown Route
Filed Route
Departure Airport
Arrival Airport
Navaid (VOR, NDB)
Fix

Horizontal Profiles

Position Reports

Time Latitude Longitude Heading Altitude Ground
Speed
01-Dec-16 09:21 34.432444 -119.835532 70 16ft 0kts
01-Dec-16 09:22 34.432444 -119.835532 70 16ft 0kts
01-Dec-16 09:23 34.432444 -119.835532 70 16ft 0kts
01-Dec-16 09:24 34.432444 -119.835532 70 16ft 0kts
01-Dec-16 09:25 34.432444 -119.835532 70 16ft 0kts
01-Dec-16 09:26 34.432444 -119.835532 70 16ft 0kts
01-Dec-16 09:27 34.432444 -119.835532 70 16ft 0kts
01-Dec-16 09:28 34.432444 -119.835532 70 16ft 0kts
01-Dec-16 09:29 34.432444 -119.835532 70 16ft 0kts
01-Dec-16 09:30 34.432444 -119.835532 70 16ft 0kts
01-Dec-16 09:31 34.432444 -119.835532 70 16ft 0kts
01-Dec-16 09:32 34.432444 -119.835532 70 16ft 0kts
01-Dec-16 09:33 34.432444 -119.835532 70 16ft 0kts
01-Dec-16 09:34 34.432444 -119.835532 70 16ft 0kts
01-Dec-16 09:35 34.432444 -119.835532 70 16ft 0kts
01-Dec-16 09:36 34.432444 -119.835532 70 16ft 0kts
01-Dec-16 09:37 34.432444 -119.835532 70 16ft 0kts
01-Dec-16 09:38 34.432444 -119.835532 70 16ft 0kts
01-Dec-16 09:39 34.432444 -119.835532 70 16ft 0kts
01-Dec-16 09:40 34.432444 -119.835532 70 16ft 0kts
01-Dec-16 09:41 34.432444 -119.835532 70 16ft 0kts
01-Dec-16 09:42 34.432444 -119.835532 70 16ft 0kts
01-Dec-16 09:43 34.432444 -119.835532 70 16ft 0kts
01-Dec-16 09:44 34.432444 -119.835532 70 16ft 0kts
01-Dec-16 09:45 34.432444 -119.835532 70 16ft 0kts
01-Dec-16 09:46 34.432444 -119.835532 70 16ft 0kts
01-Dec-16 09:47 34.432320 -119.835415 169 16ft 0kts
01-Dec-16 09:48 34.431698 -119.836444 250 16ft 12kts
01-Dec-16 09:49 34.430710 -119.839796 247 16ft 0kts
01-Dec-16 09:50 34.430710 -119.839796 247 16ft 0kts
01-Dec-16 09:51 34.430465 -119.840262 185 16ft 3kts
01-Dec-16 09:52 34.406610 -119.833631 170 824ft 139kts
01-Dec-16 09:53 34.368998 -119.821759 162 2547ft 142kts
01-Dec-16 09:54 34.329962 -119.802678 158 3263ft 150kts
01-Dec-16 09:55 34.293233 -119.784894 135 4202ft 142kts
01-Dec-16 09:56 34.291105 -119.739174 83 5094ft 141kts
01-Dec-16 09:57 34.297091 -119.685783 81 4937ft 168kts
01-Dec-16 09:58 34.298992 -119.629960 97 4914ft 170kts
01-Dec-16 09:59 34.293602 -119.576425 91 4616ft 129kts
01-Dec-16 10:00 34.287857 -119.531941 102 5042ft 135kts
01-Dec-16 10:01 34.280143 -119.487202 103 5041ft 177kts
01-Dec-16 10:02 34.269717 -119.427313 97 4906ft 182kts
01-Dec-16 10:03 34.259545 -119.367724 103 4901ft 184kts
01-Dec-16 10:04 34.247967 -119.307614 102 4938ft 187kts
01-Dec-16 10:05 34.238851 -119.255021 101 4940ft 184kts
01-Dec-16 10:06 34.229331 -119.197523 101 4940ft 183kts
01-Dec-16 10:07 34.220007 -119.140414 101 4940ft 183kts
01-Dec-16 10:08 34.213651 -119.083617 84 4942ft 183kts
01-Dec-16 10:09 34.217523 -119.027935 89 4940ft 183kts
01-Dec-16 10:10 34.215888 -118.972327 91 4940ft 183kts
01-Dec-16 10:11 34.215309 -118.917325 90 4940ft 183kts
01-Dec-16 10:12 34.215462 -118.862391 89 4966ft 182kts
01-Dec-16 10:13 34.217585 -118.805542 87 4967ft 183kts
01-Dec-16 10:14 34.219062 -118.748632 88 4967ft 183kts
01-Dec-16 10:15 34.220085 -118.694225 88 4967ft 183kts
01-Dec-16 10:16 34.220979 -118.642664 88 4967ft 183kts
01-Dec-16 10:17 34.221819 -118.592550 88 4967ft 183kts
01-Dec-16 10:18 34.222579 -118.545998 88 4967ft 183kts
01-Dec-16 10:19 34.221981 -118.498277 103 4968ft 182kts
01-Dec-16 10:20 34.210511 -118.445919 104 4967ft 183kts
01-Dec-16 10:21 34.198228 -118.390336 104 4967ft 183kts
01-Dec-16 10:22 34.184639 -118.340506 124 4973ft 182kts
01-Dec-16 10:23 34.164168 -118.292182 113 4968ft 183kts
01-Dec-16 10:24 34.154597 -118.263422 111 4967ft 183kts
01-Dec-16 10:25 34.144703 -118.231980 110 4967ft 183kts
01-Dec-16 10:26 34.127033 -118.174543 110 4967ft 183kts
01-Dec-16 10:27 34.109743 -118.118079 110 4967ft 183kts
01-Dec-16 10:28 34.092899 -118.063120 110 4967ft 183kts
01-Dec-16 10:29 34.075718 -118.007180 110 4967ft 183kts
01-Dec-16 10:30 34.058821 -117.952269 110 4967ft 183kts
01-Dec-16 10:31 34.041537 -117.896204 110 4967ft 183kts
01-Dec-16 10:32 34.024109 -117.839813 111 4967ft 183kts
01-Dec-16 10:33 33.992281 -117.793588 131 4159ft 174kts
01-Dec-16 10:34 33.957050 -117.763784 151 3963ft 153kts
01-Dec-16 10:35 33.918161 -117.738541 151 3488ft 164kts
01-Dec-16 10:36 33.874438 -117.742507 207 2982ft 164kts
01-Dec-16 10:37 33.836962 -117.766314 207 2957ft 140kts
01-Dec-16 10:38 33.804442 -117.786978 207 2731ft 123kts
01-Dec-16 10:39 33.774793 -117.805835 207 794ft 122kts
01-Dec-16 10:40 33.746470 -117.825035 205 1033ft 117kts
01-Dec-16 10:41 33.716911 -117.842831 207 855ft 115kts
01-Dec-16 10:42 33.690668 -117.859366 208 290ft 101kts
01-Dec-16 10:43 33.674067 -117.869862 207 59ft 30kts
01-Dec-16 10:44 33.669146 -117.871667 130 59ft 0kts
01-Dec-16 10:45 33.668716 -117.871352 170 59ft 7kts
01-Dec-16 10:46 33.667968 -117.870933 220 59ft 0kts
01-Dec-16 10:47 33.667968 -117.870933 220 59ft 0kts

Navigation Log

Ident Type
1. KSBA Airport
2. KWANG Fix
3. CMA Navaid
4. VNY Navaid
5. DARTS Fix
6. PURMS Fix
7. ELMOO Fix
8. ITSME Fix
9. PIRRO Fix
10. ADAMM Fix
11. BAYJY Fix
12. PRADO Fix
13. POXKU Fix
14. OLLIE Fix
15. AHEIM Fix
16. SLI Navaid
17. KSNA Airport